Time;durP1;ratioP1;P1;durP2;ratioP2;P2;SDS_P1;SDS_P2;PMS_P1;PMS_P2;Temp;Humidity;BMP_temperature;BMP_pressure;BME280_temperature;BME280_humidity;BME280_pressure;Samples;Min_cycle;Max_cycle;Signal;HPM_P1;HPM_P2
2022/10/15 00:01:18;;;;;;;80.60;39.93;;;;;;;9.16;100.00;99846.84;4218070;28;23433;-69
2022/10/15 00:03:45;;;;;;;85.90;38.87;;;;;;;9.12;100.00;99854.28;4228789;28;20412;-69
2022/10/15 00:06:16;;;;;;;86.33;39.57;;;;;;;9.14;100.00;99849.66;4224518;28;20335;-68
2022/10/15 00:08:43;;;;;;;87.63;41.03;;;;;;;9.11;100.00;99854.41;4211187;28;20280;-70
2022/10/15 00:11:18;;;;;;;77.30;38.17;;;;;;;9.15;100.00;99851.31;4217216;28;20240;-69
2022/10/15 00:13:44;;;;;;;85.73;40.80;;;;;;;9.11;100.00;99844.66;4235177;28;21733;-68
2022/10/15 00:16:14;;;;;;;83.50;40.77;;;;;;;9.05;100.00;99850.56;4225016;28;20237;-69
2022/10/15 00:18:41;;;;;;;89.47;39.20;;;;;;;9.02;100.00;99845.56;4227939;28;20227;-69
2022/10/15 00:21:10;;;;;;;82.47;39.90;;;;;;;9.04;100.00;99841.75;4216070;28;20325;-69
2022/10/15 00:23:36;;;;;;;92.57;39.97;;;;;;;9.15;100.00;99838.03;4223496;28;20640;-72
2022/10/15 00:26:23;;;;;;;83.80;40.07;;;;;;;9.03;100.00;99839.25;4226198;28;20239;-71
2022/10/15 00:28:52;;;;;;;81.50;40.80;;;;;;;8.99;100.00;99836.06;4234453;28;20242;-68
2022/10/15 00:31:19;;;;;;;85.67;41.10;;;;;;;9.06;100.00;99831.84;4222546;28;20235;-69
2022/10/15 00:33:48;;;;;;;80.73;40.77;;;;;;;9.11;100.00;99828.72;4224046;28;20623;-69
2022/10/15 00:36:17;;;;;;;86.20;39.77;;;;;;;9.12;100.00;99830.38;4229593;28;20665;-69
2022/10/15 00:38:44;;;;;;;90.17;43.20;;;;;;;8.92;100.00;99839.44;4223104;28;21772;-71
2022/10/15 00:41:27;;;;;;;83.77;40.70;;;;;;;9.03;100.00;99833.94;4235221;28;20235;-70
2022/10/15 00:44:13;;;;;;;78.57;39.57;;;;;;;8.98;100.00;99834.38;4214135;28;20303;-69
2022/10/15 00:46:41;;;;;;;93.57;43.27;;;;;;;8.95;100.00;99831.22;4228696;28;20410;-71
2022/10/15 00:49:17;;;;;;;89.30;41.47;;;;;;;8.79;100.00;99830.03;4207685;28;25615;-72
2022/10/15 00:51:55;;;;;;;88.87;42.50;;;;;;;8.87;100.00;99822.19;4225301;28;23298;-69
2022/10/15 00:54:22;;;;;;;85.53;39.73;;;;;;;8.88;100.00;99825.66;4219411;28;21289;-71
2022/10/15 00:56:49;;;;;;;86.57;41.57;;;;;;;8.90;100.00;99829.00;4212213;28;20231;-69
2022/10/15 00:59:18;;;;;;;87.20;42.90;;;;;;;8.92;100.00;99826.19;4218685;28;20640;-69
2022/10/15 01:01:44;;;;;;;87.37;41.60;;;;;;;8.83;100.00;99822.63;4230027;28;20238;-69
2022/10/15 01:04:11;;;;;;;80.20;41.53;;;;;;;8.80;100.00;99821.09;4233306;28;20257;-71
2022/10/15 01:06:38;;;;;;;95.80;44.07;;;;;;;8.74;100.00;99812.91;4230320;28;20242;-70
2022/10/15 01:09:05;;;;;;;93.17;42.67;;;;;;;8.69;100.00;99818.66;4222678;28;21904;-69
2022/10/15 01:11:39;;;;;;;89.30;42.93;;;;;;;8.74;100.00;99811.06;4230581;28;20237;-69
2022/10/15 01:14:11;;;;;;;91.77;41.77;;;;;;;8.69;100.00;99813.34;4216495;28;21577;-68
2022/10/15 01:16:45;;;;;;;85.13;42.33;;;;;;;8.69;100.00;99813.34;4221914;28;20247;-70
2022/10/15 01:19:31;;;;;;;85.97;42.53;;;;;;;8.54;100.00;99804.19;4222859;28;20283;-70
2022/10/15 01:22:03;;;;;;;90.53;42.07;;;;;;;8.60;100.00;99811.59;4237025;28;22200;-72
2022/10/15 01:24:41;;;;;;;95.10;42.93;;;;;;;8.59;100.00;99813.41;4225569;28;20285;-70
2022/10/15 01:27:20;;;;;;;95.23;43.20;;;;;;;8.71;100.00;99814.03;4200142;28;20228;-70
2022/10/15 01:30:00;;;;;;;89.70;43.57;;;;;;;8.66;100.00;99813.63;4226976;28;20299;-68
2022/10/15 01:32:48;;;;;;;95.87;45.73;;;;;;;8.62;100.00;99806.97;4228377;28;20242;-69
2022/10/15 01:35:31;;;;;;;100.03;42.93;;;;;;;8.60;100.00;99808.94;4231470;28;20286;-69
2022/10/15 01:38:09;;;;;;;97.63;44.50;;;;;;;8.58;100.00;99805.59;4227628;28;20682;-71
2022/10/15 01:40:45;;;;;;;100.33;44.17;;;;;;;8.58;100.00;99811.72;4211350;28;20229;-70
2022/10/15 01:43:15;;;;;;;92.67;43.10;;;;;;;8.60;100.00;99806.28;4199848;28;20528;-68
2022/10/15 01:45:53;;;;;;;90.37;42.43;;;;;;;8.68;100.00;99806.34;4212725;28;20355;-70
2022/10/15 01:48:20;;;;;;;93.40;43.23;;;;;;;8.69;100.00;99802.75;4198688;28;20241;-68
2022/10/15 01:50:50;;;;;;;97.33;44.43;;;;;;;8.74;100.00;99799.63;4230668;28;20239;-69
2022/10/15 01:53:25;;;;;;;95.60;45.17;;;;;;;8.71;100.00;99800.78;4208181;28;20231;-70
2022/10/15 01:56:01;;;;;;;98.67;43.10;;;;;;;8.60;100.00;99795.66;4201452;28;24313;-69
2022/10/15 01:58:29;;;;;;;92.07;42.80;;;;;;;8.56;100.00;99799.59;4199755;28;20232;-70
2022/10/15 02:00:57;;;;;;;86.73;41.10;;;;;;;8.56;100.00;99788.97;4201664;28;21557;-69
2022/10/15 02:03:23;;;;;;;93.80;43.03;;;;;;;8.44;100.00;99789.16;4209303;28;21878;-67
2022/10/15 02:05:59;;;;;;;98.10;42.23;;;;;;;8.49;100.00;99788.72;4195339;28;20744;-68
2022/10/15 02:08:51;;;;;;;86.83;42.13;;;;;;;8.50;100.00;99782.47;4209876;28;20296;-71
2022/10/15 02:11:18;;;;;;;80.40;40.37;;;;;;;8.50;100.00;99785.13;4225245;28;22980;-67
2022/10/15 02:14:00;;;;;;;96.77;42.73;;;;;;;8.38;100.00;99779.16;4200139;28;21228;-68
2022/10/15 02:17:07;;;;;;;92.47;41.63;;;;;;;8.43;100.00;99768.97;4220121;28;22382;-70
2022/10/15 02:19:58;;;;;;;92.30;41.50;;;;;;;8.39;100.00;99772.84;4183141;29;22544;-69
2022/10/15 02:22:43;;;;;;;89.93;41.80;;;;;;;8.29;100.00;99779.16;4156618;29;20252;-67
2022/10/15 02:25:14;;;;;;;95.57;41.87;;;;;;;8.22;100.00;99773.63;4197054;28;25712;-68
2022/10/15 02:27:42;;;;;;;95.37;43.93;;;;;;;8.32;100.00;99773.59;4215138;28;20229;-71
2022/10/15 02:30:09;;;;;;;88.30;42.50;;;;;;;8.24;100.00;99771.66;4218885;28;20246;-69
2022/10/15 02:32:37;;;;;;;93.13;42.83;;;;;;;8.21;100.00;99756.88;4226866;28;20487;-68
2022/10/15 02:35:06;;;;;;;92.33;43.23;;;;;;;8.16;100.00;99755.66;4218100;28;21077;-68
2022/10/15 02:37:34;;;;;;;97.37;43.80;;;;;;;8.16;100.00;99758.31;4214288;28;20251;-69
2022/10/15 02:40:01;;;;;;;96.27;44.87;;;;;;;8.10;100.00;99758.88;4227943;28;20511;-70
2022/10/15 02:42:27;;;;;;;89.53;43.13;;;;;;;8.15;100.00;99761.94;4217604;28;24001;-69
2022/10/15 02:44:54;;;;;;;92.97;44.33;;;;;;;8.13;100.00;99754.13;4199638;28;20241;-68
2022/10/15 02:47:20;;;;;;;88.67;43.33;;;;;;;8.23;100.00;99756.75;4240447;28;20527;-68
2022/10/15 02:49:47;;;;;;;89.57;43.03;;;;;;;8.28;100.00;99756.31;4207584;28;21129;-69
2022/10/15 02:52:13;;;;;;;93.70;42.30;;;;;;;8.34;100.00;99753.06;4210171;28;20294;-70
2022/10/15 02:54:40;;;;;;;100.17;43.50;;;;;;;8.34;100.00;99761.84;4219113;28;20242;-68
2022/10/15 02:57:07;;;;;;;96.33;43.20;;;;;;;8.27;100.00;99755.47;4216657;28;20247;-68
2022/10/15 02:59:33;;;;;;;100.43;45.00;;;;;;;8.25;100.00;99757.44;4220622;28;20344;-68
2022/10/15 03:02:00;;;;;;;103.10;45.63;;;;;;;8.26;100.00;99743.19;4226764;28;23690;-69
2022/10/15 03:04:27;;;;;;;103.93;46.63;;;;;;;8.23;100.00;99754.09;4219190;28;21274;-68
2022/10/15 03:06:53;;;;;;;98.83;43.97;;;;;;;8.32;100.00;99760.34;4224987;28;20234;-67
2022/10/15 03:09:20;;;;;;;100.63;45.30;;;;;;;8.33;100.00;99757.50;4209902;28;20228;-70
2022/10/15 03:11:47;;;;;;;97.33;43.70;;;;;;;8.34;100.00;99747.78;4226536;28;20308;-69
2022/10/15 03:14:14;;;;;;;107.23;45.03;;;;;;;8.25;100.00;99752.13;4225893;28;20235;-68
2022/10/15 03:16:40;;;;;;;101.60;45.10;;;;;;;8.25;100.00;99760.91;4208704;28;23208;-71
2022/10/15 03:19:07;;;;;;;97.93;44.40;;;;;;;8.35;100.00;99755.56;4230629;28;20680;-68
2022/10/15 03:21:33;;;;;;;95.00;43.97;;;;;;;8.31;100.00;99756.84;4209930;28;20236;-68
2022/10/15 03:24:00;;;;;;;96.57;44.10;;;;;;;8.30;100.00;99747.22;4224046;28;20231;-68
2022/10/15 03:26:26;;;;;;;101.33;46.17;;;;;;;8.35;100.00;99750.25;4215509;28;20243;-67
2022/10/15 03:28:53;;;;;;;97.93;44.47;;;;;;;8.33;100.00;99749.56;4219815;28;20333;-69
2022/10/15 03:31:20;;;;;;;109.80;44.70;;;;;;;8.35;100.00;99752.06;4210493;28;20314;-67
2022/10/15 03:33:46;;;;;;;94.53;43.33;;;;;;;8.33;100.00;99754.03;4210666;28;20721;-69
2022/10/15 03:36:13;;;;;;;101.37;41.97;;;;;;;8.25;100.00;99746.81;4212430;28;20239;-67
2022/10/15 03:38:39;;;;;;;88.43;43.53;;;;;;;8.21;100.00;99746.28;4213822;28;21434;-68
2022/10/15 03:41:06;;;;;;;95.00;44.63;;;;;;;8.11;100.00;99752.63;4218228;28;20323;-68
2022/10/15 03:43:32;;;;;;;102.67;44.83;;;;;;;8.19;100.00;99750.06;4218405;28;21038;-66
2022/10/15 03:46:05;;;;;;;94.07;44.10;;;;;;;8.22;100.00;99757.72;4222557;28;20775;-70
2022/10/15 03:48:32;;;;;;;103.70;44.47;;;;;;;8.07;100.00;99746.75;4223397;28;25559;-69
2022/10/15 03:50:58;;;;;;;104.57;44.07;;;;;;;8.06;100.00;99742.47;4233896;28;20248;-69
2022/10/15 03:53:25;;;;;;;96.07;44.60;;;;;;;8.08;100.00;99734.34;4221635;28;20252;-67
2022/10/15 03:55:51;;;;;;;98.17;44.17;;;;;;;8.03;100.00;99730.34;4226981;28;21148;-68
2022/10/15 03:58:18;;;;;;;99.00;42.77;;;;;;;8.11;100.00;99723.47;4219310;28;23112;-68
2022/10/15 04:00:44;;;;;;;101.73;44.53;;;;;;;8.14;100.00;99723.16;4222252;28;20231;-69
2022/10/15 04:03:11;;;;;;;104.80;45.47;;;;;;;8.12;100.00;99723.31;4221313;28;21080;-68
2022/10/15 04:05:37;;;;;;;94.00;43.73;;;;;;;8.16;100.00;99715.91;4214996;28;20864;-69
2022/10/15 04:08:04;;;;;;;100.10;43.93;;;;;;;8.17;100.00;99717.56;4230300;28;20413;-69
2022/10/15 04:10:31;;;;;;;109.27;46.83;;;;;;;8.18;100.00;99721.91;4236280;28;21892;-69
2022/10/15 04:12:57;;;;;;;99.17;45.73;;;;;;;8.26;100.00;99716.69;4227424;28;20274;-68
2022/10/15 04:15:26;;;;;;;98.60;43.93;;;;;;;8.30;100.00;99706.63;4218440;28;22703;-70
2022/10/15 04:17:54;;;;;;;94.77;44.00;;;;;;;8.37;100.00;99719.13;4223365;28;20344;-70
2022/10/15 04:20:20;;;;;;;92.83;44.47;;;;;;;8.54;100.00;99714.03;4218220;28;20235;-68
2022/10/15 04:22:47;;;;;;;95.30;43.53;;;;;;;8.51;100.00;99717.00;4199856;28;21119;-68
2022/10/15 04:25:14;;;;;;;86.63;42.23;;;;;;;8.60;100.00;99708.16;4207607;28;24942;-68
2022/10/15 04:27:40;;;;;;;90.10;41.43;;;;;;;8.54;100.00;99708.75;4217042;28;21378;-68
2022/10/15 04:30:08;;;;;;;89.07;41.87;;;;;;;8.54;100.00;99709.56;4228388;28;20425;-69
2022/10/15 04:32:34;;;;;;;91.93;41.27;;;;;;;8.58;100.00;99710.94;4219470;28;20407;-69
2022/10/15 04:35:00;;;;;;;88.43;40.23;;;;;;;8.66;100.00;99719.00;4220410;28;22435;-69
2022/10/15 04:37:27;;;;;;;92.43;39.93;;;;;;;8.77;100.00;99720.56;4217303;28;21165;-69
2022/10/15 04:39:53;;;;;;;81.43;38.43;;;;;;;8.80;100.00;99715.00;4219485;28;20246;-68
2022/10/15 04:42:20;;;;;;;77.53;37.70;;;;;;;8.77;100.00;99709.97;4236045;28;20228;-68
2022/10/15 04:44:47;;;;;;;86.60;39.53;;;;;;;8.86;100.00;99719.66;4220830;28;20243;-68
2022/10/15 04:47:13;;;;;;;85.00;38.00;;;;;;;8.87;100.00;99718.69;4200298;28;22011;-68
2022/10/15 04:49:40;;;;;;;83.30;38.73;;;;;;;8.83;100.00;99713.84;4215209;28;20231;-69
2022/10/15 04:52:07;;;;;;;82.17;37.93;;;;;;;8.83;100.00;99714.69;4219280;28;24013;-68
2022/10/15 04:54:33;;;;;;;72.47;36.63;;;;;;;8.83;100.00;99719.97;4222523;28;20346;-68
2022/10/15 04:57:00;;;;;;;78.27;37.83;;;;;;;8.81;100.00;99719.28;4223608;28;20237;-67
2022/10/15 04:59:26;;;;;;;80.00;36.40;;;;;;;8.75;100.00;99711.94;4215817;28;21764;-68
2022/10/15 05:01:52;;;;;;;70.67;36.40;;;;;;;8.79;100.00;99701.88;4217631;28;20232;-67
2022/10/15 05:04:19;;;;;;;76.23;37.43;;;;;;;8.84;100.00;99711.03;4215805;28;20227;-68
2022/10/15 05:06:45;;;;;;;79.57;37.13;;;;;;;8.82;100.00;99713.00;4220988;28;20256;-67
2022/10/15 05:09:12;;;;;;;77.60;36.20;;;;;;;8.80;100.00;99717.66;4216740;28;20229;-67
2022/10/15 05:11:38;;;;;;;69.53;36.20;;;;;;;8.86;100.00;99713.53;4213502;28;20339;-69
2022/10/15 05:14:06;;;;;;;69.03;34.90;;;;;;;8.86;100.00;99721.50;4207810;28;20243;-69
2022/10/15 05:16:32;;;;;;;90.47;37.90;;;;;;;8.83;100.00;99717.34;4216215;28;20636;-70
2022/10/15 05:19:05;;;;;;;76.30;36.00;;;;;;;8.85;100.00;99717.19;4245861;28;22098;-68
2022/10/15 05:21:33;;;;;;;73.13;35.20;;;;;;;8.85;100.00;99717.19;4223747;28;22314;-69
2022/10/15 05:23:59;;;;;;;74.23;35.73;;;;;;;8.87;100.00;99721.34;4242733;28;20250;-68
2022/10/15 05:26:28;;;;;;;75.70;36.17;;;;;;;8.84;100.00;99718.97;4219370;28;21729;-69
2022/10/15 05:28:55;;;;;;;76.73;35.13;;;;;;;8.91;100.00;99719.22;4219543;28;20320;-69
2022/10/15 05:31:24;;;;;;;81.00;37.47;;;;;;;8.85;100.00;99725.16;4216904;28;20232;-68
2022/10/15 05:33:52;;;;;;;72.80;36.20;;;;;;;8.84;100.00;99716.34;4234688;28;20238;-68
2022/10/15 05:36:23;;;;;;;71.50;35.43;;;;;;;8.84;100.00;99715.50;4214382;28;20302;-70
2022/10/15 05:38:58;;;;;;;70.80;36.07;;;;;;;9.01;100.00;99727.94;4237911;28;20243;-69
2022/10/15 05:41:26;;;;;;;71.07;35.37;;;;;;;9.02;100.00;99734.91;4217836;28;25456;-69
2022/10/15 05:43:54;;;;;;;66.77;35.07;;;;;;;9.04;100.00;99722.31;4215208;28;20390;-70
2022/10/15 05:46:21;;;;;;;71.90;34.17;;;;;;;9.07;100.00;99724.66;4203456;28;22064;-68
2022/10/15 05:48:52;;;;;;;71.93;35.27;;;;;;;9.08;100.00;99725.50;4213962;28;20236;-71
2022/10/15 05:51:19;;;;;;;70.13;35.00;;;;;;;9.10;100.00;99726.19;4214934;28;23531;-69
2022/10/15 05:53:45;;;;;;;65.07;33.40;;;;;;;9.20;100.00;99726.09;4212938;28;23033;-71
2022/10/15 05:56:13;;;;;;;64.60;34.40;;;;;;;9.27;100.00;99728.00;4216785;28;22486;-69
2022/10/15 05:58:39;;;;;;;68.47;34.73;;;;;;;9.33;100.00;99729.19;4228619;28;21897;-71
2022/10/15 06:01:08;;;;;;;67.80;33.80;;;;;;;9.42;100.00;99730.09;4220797;28;22928;-68
2022/10/15 06:03:35;;;;;;;66.03;33.17;;;;;;;9.41;100.00;99729.28;4220873;28;20946;-69
2022/10/15 06:06:01;;;;;;;65.67;32.10;;;;;;;9.52;100.00;99730.81;4233111;28;20250;-68
2022/10/15 06:08:29;;;;;;;69.63;32.80;;;;;;;9.64;100.00;99742.03;4210938;28;20332;-68
2022/10/15 06:11:02;;;;;;;64.47;32.00;;;;;;;9.73;100.00;99738.44;4215799;28;21901;-70
2022/10/15 06:13:36;;;;;;;69.03;33.97;;;;;;;9.86;100.00;99740.69;4204919;28;20322;-67
2022/10/15 06:16:03;;;;;;;66.90;32.47;;;;;;;9.92;100.00;99735.53;4204514;28;20246;-70
2022/10/15 06:18:32;;;;;;;64.40;32.33;;;;;;;9.93;100.00;99739.06;4210988;28;20317;-69
2022/10/15 06:20:59;;;;;;;62.07;32.87;;;;;;;9.99;100.00;99733.09;4218296;28;20234;-68
2022/10/15 06:23:25;;;;;;;61.50;31.53;;;;;;;10.11;100.00;99733.63;4211324;28;20241;-67
2022/10/15 06:25:52;;;;;;;60.33;31.17;;;;;;;10.13;100.00;99745.78;4211214;28;22899;-68
2022/10/15 06:28:18;;;;;;;55.00;30.50;;;;;;;10.29;100.00;99739.75;4235241;28;23880;-67
2022/10/15 06:30:45;;;;;;;60.73;31.13;;;;;;;10.45;100.00;99744.28;4212349;28;20231;-74
2022/10/15 06:33:12;;;;;;;62.77;31.50;;;;;;;10.51;100.00;99748.13;4210604;28;20236;-67
2022/10/15 06:35:40;;;;;;;56.33;30.67;;;;;;;10.40;100.00;99751.94;4213095;28;20240;-68
2022/10/15 06:38:06;;;;;;;59.53;30.97;;;;;;;10.44;100.00;99750.63;4217730;28;20443;-68
2022/10/15 06:40:33;;;;;;;58.83;31.03;;;;;;;10.41;100.00;99750.09;4210484;28;21161;-66
2022/10/15 06:43:06;;;;;;;58.00;30.90;;;;;;;10.41;100.00;99752.75;4205555;28;21657;-65
2022/10/15 06:45:35;;;;;;;59.87;30.77;;;;;;;10.41;100.00;99753.56;4203288;28;20265;-65
2022/10/15 06:48:03;;;;;;;60.87;31.57;;;;;;;10.55;100.00;99763.59;4222441;28;20308;-67
2022/10/15 06:50:31;;;;;;;59.23;31.23;;;;;;;10.56;100.00;99770.59;4249140;28;20261;-66
2022/10/15 06:52:58;;;;;;;58.27;30.97;;;;;;;10.63;100.00;99772.59;4206349;28;21175;-64
2022/10/15 06:55:33;;;;;;;56.93;30.60;;;;;;;10.75;100.00;99761.50;4209231;28;20863;-64
2022/10/15 06:58:00;;;;;;;55.43;30.70;;;;;;;10.87;100.00;99766.53;4247484;28;20293;-63
2022/10/15 07:00:27;;;;;;;57.37;29.67;;;;;;;10.98;100.00;99760.91;4217550;28;20398;-68
2022/10/15 07:02:53;;;;;;;62.40;31.33;;;;;;;11.01;100.00;99773.03;4214901;28;20603;-66
2022/10/15 07:05:20;;;;;;;60.80;30.37;;;;;;;11.13;100.00;99766.41;4206154;28;20229;-67
2022/10/15 07:07:54;;;;;;;60.80;29.47;;;;;;;11.26;100.00;99779.22;4196446;28;20320;-67
2022/10/15 07:10:21;;;;;;;58.33;30.43;;;;;;;11.24;100.00;99768.75;4221309;28;21696;-66
2022/10/15 07:12:48;;;;;;;57.60;30.97;;;;;;;11.29;100.00;99769.06;4219849;28;21154;-69
2022/10/15 07:15:15;;;;;;;56.37;29.07;;;;;;;11.43;100.00;99774.75;4221634;28;20232;-63
2022/10/15 07:17:55;;;;;;;54.77;29.23;;;;;;;11.57;100.00;99776.72;4204749;28;20271;-66
2022/10/15 07:20:22;;;;;;;55.80;28.60;;;;;;;11.73;100.00;99771.38;4238809;28;20290;-64
2022/10/15 07:22:50;;;;;;;55.47;29.57;;;;;;;11.81;100.00;99778.53;4233453;28;20514;-65
2022/10/15 07:25:17;;;;;;;51.17;26.90;;;;;;;12.04;98.53;99782.19;4219213;28;20309;-66
2022/10/15 07:27:44;;;;;;;47.50;26.47;;;;;;;12.24;96.60;99785.31;4209122;28;20244;-67
2022/10/15 07:30:10;;;;;;;46.53;25.90;;;;;;;12.45;95.75;99781.19;4197018;28;20888;-64
2022/10/15 07:32:37;;;;;;;46.47;25.17;;;;;;;12.51;93.84;99771.69;4197268;28;20253;-65
2022/10/15 07:35:04;;;;;;;47.50;25.93;;;;;;;12.30;96.13;99778.44;4230744;28;20545;-65
2022/10/15 07:37:33;;;;;;;53.37;27.17;;;;;;;12.42;96.03;99770.88;4214256;28;20231;-68
2022/10/15 07:40:00;;;;;;;44.00;24.33;;;;;;;12.44;94.59;99768.88;4206470;28;20578;-66
2022/10/15 07:42:26;;;;;;;50.60;26.37;;;;;;;12.32;94.96;99764.94;4211216;28;20245;-66
2022/10/15 07:44:53;;;;;;;45.97;25.17;;;;;;;12.38;95.74;99764.22;4234015;28;20295;-68
2022/10/15 07:47:20;;;;;;;50.53;25.27;;;;;;;12.52;94.89;99768.81;4252345;28;20255;-65
2022/10/15 07:49:47;;;;;;;44.30;25.33;;;;;;;12.59;94.26;99772.44;4229142;28;22590;-65
2022/10/15 07:52:13;;;;;;;48.20;25.47;;;;;;;12.78;93.68;99776.56;4209273;28;20312;-65
2022/10/15 07:54:40;;;;;;;46.73;25.50;;;;;;;13.03;92.07;99769.19;4240171;28;20238;-67
2022/10/15 07:57:07;;;;;;;45.50;24.60;;;;;;;14.23;87.56;99776.50;4240558;28;20239;-67
2022/10/15 07:59:34;;;;;;;46.97;23.57;;;;;;;16.91;73.46;99793.91;4237416;28;20244;-66
2022/10/15 08:02:01;;;;;;;46.20;23.70;;;;;;;19.15;62.14;99803.78;4241168;28;20877;-64
2022/10/15 08:04:27;;;;;;;41.83;21.83;;;;;;;19.28;58.50;99797.50;4224057;28;22517;-73
2022/10/15 08:06:54;;;;;;;36.10;22.20;;;;;;;19.92;55.15;99814.47;4259769;28;20235;-66
2022/10/15 08:09:21;;;;;;;42.03;22.27;;;;;;;19.99;54.26;99807.97;4215308;28;20768;-66
2022/10/15 08:11:47;;;;;;;39.40;21.27;;;;;;;20.38;52.42;99814.00;4238446;28;20302;-69
2022/10/15 08:14:14;;;;;;;35.60;21.43;;;;;;;20.53;51.32;99810.94;4249989;28;20384;-70
2022/10/15 08:16:41;;;;;;;40.77;21.17;;;;;;;20.87;49.95;99824.91;4246680;28;20246;-65
2022/10/15 08:19:08;;;;;;;38.60;20.77;;;;;;;20.63;50.39;99813.97;4267255;28;20750;-64
2022/10/15 08:21:35;;;;;;;37.80;21.20;;;;;;;19.45;54.77;99797.78;4295161;28;20330;-67
2022/10/15 08:24:04;;;;;;;36.20;20.47;;;;;;;19.95;54.19;99800.53;4255535;28;20358;-65
2022/10/15 08:26:33;;;;;;;39.17;21.63;;;;;;;20.65;50.98;99809.19;4243114;28;20224;-66
2022/10/15 08:29:00;;;;;;;37.57;21.20;;;;;;;21.28;47.97;99817.91;4252961;28;20291;-69
2022/10/15 08:31:27;;;;;;;36.97;21.93;;;;;;;21.73;47.18;99803.94;4246381;28;20348;-66
2022/10/15 08:33:53;;;;;;;43.73;21.33;;;;;;;21.31;47.33;99809.34;4263046;28;20260;-69
2022/10/15 08:36:20;;;;;;;37.60;21.10;;;;;;;20.51;50.12;99790.59;4263431;28;20276;-65
2022/10/15 08:38:47;;;;;;;35.13;19.87;;;;;;;21.50;48.14;99802.81;4272338;28;22760;-64
2022/10/15 08:41:36;;;;;;;36.60;20.80;;;;;;;22.29;45.21;99807.97;4248017;28;21767;-68
2022/10/15 08:44:04;;;;;;;38.73;20.83;;;;;;;22.61;43.84;99804.00;4270428;28;25618;-66
2022/10/15 08:46:46;;;;;;;36.33;20.30;;;;;;;21.69;46.31;99791.91;4258829;28;20379;-69
2022/10/15 08:49:33;;;;;;;34.60;19.73;;;;;;;20.13;51.32;99784.34;4245512;28;20256;-66
2022/10/15 08:52:13;;;;;;;33.87;19.97;;;;;;;18.73;57.14;99760.22;4266910;28;22470;-69
2022/10/15 08:54:40;;;;;;;36.23;20.97;;;;;;;18.18;60.54;99757.13;4247830;28;21755;-66
2022/10/15 08:57:22;;;;;;;37.60;21.33;;;;;;;17.75;62.29;99758.44;4254589;28;20409;-65
2022/10/15 09:00:03;;;;;;;38.03;20.83;;;;;;;16.43;68.85;99765.16;4254933;28;20316;-64
2022/10/15 09:02:47;;;;;;;38.57;21.80;;;;;;;16.10;71.75;99746.22;4320713;28;20556;-66
2022/10/15 09:05:37;;;;;;;36.90;21.17;;;;;;;15.77;73.56;99744.16;4239838;28;20598;-63
2022/10/15 09:08:19;;;;;;;40.50;21.50;;;;;;;15.53;74.92;99734.66;4220125;28;21138;-67
2022/10/15 09:10:49;;;;;;;38.67;21.50;;;;;;;15.51;75.88;99737.53;4224519;28;20262;-67
2022/10/15 09:13:39;;;;;;;41.97;22.27;;;;;;;15.47;75.91;99740.78;4228257;28;20238;-69
2022/10/15 09:16:17;;;;;;;46.50;22.03;;;;;;;15.44;76.91;99736.66;4222667;28;20235;-65
2022/10/15 09:18:50;;;;;;;38.47;21.97;;;;;;;15.39;77.17;99745.28;4229422;28;20349;-68
2022/10/15 09:21:17;;;;;;;39.20;21.23;;;;;;;15.73;75.70;99750.91;4271997;28;20425;-66
2022/10/15 09:23:44;;;;;;;38.43;21.43;;;;;;;15.63;76.14;99745.88;4231102;28;20278;-71
2022/10/15 09:26:10;;;;;;;43.90;22.37;;;;;;;15.53;76.35;99743.53;4246245;28;21685;-68
2022/10/15 09:29:16;;;;;;;39.50;22.17;;;;;;;15.26;77.92;99734.41;4284458;28;20306;-72
2022/10/15 09:32:00;;;;;;;38.87;22.17;;;;;;;15.05;79.36;99748.66;4230621;28;20375;-68
2022/10/15 09:34:34;;;;;;;40.10;22.30;;;;;;;15.01;80.19;99739.38;4201587;28;20237;-67
2022/10/15 09:37:08;;;;;;;38.20;21.40;;;;;;;14.98;80.27;99742.41;4216788;28;20257;-67
2022/10/15 09:39:45;;;;;;;40.83;23.33;;;;;;;14.92;81.72;99743.19;4221433;28;20234;-67
2022/10/15 09:42:33;;;;;;;45.00;21.63;;;;;;;14.95;80.85;99740.13;4244650;28;20366;-66
2022/10/15 09:45:04;;;;;;;38.00;21.17;;;;;;;15.05;80.47;99740.63;4237750;28;20323;-67
2022/10/15 09:47:33;;;;;;;42.03;22.00;;;;;;;15.08;80.96;99742.13;4231685;28;21755;-68
2022/10/15 09:50:00;;;;;;;38.40;21.87;;;;;;;15.07;80.82;99751.97;4223772;28;21225;-67
2022/10/15 09:52:33;;;;;;;41.10;22.10;;;;;;;15.06;81.25;99750.34;4227198;28;26042;-66
2022/10/15 09:55:14;;;;;;;40.27;21.67;;;;;;;15.04;81.21;99751.53;4230210;28;20235;-69
2022/10/15 09:57:41;;;;;;;40.07;19.80;;;;;;;15.02;81.30;99738.31;4266341;28;20455;-66
2022/10/15 10:00:10;;;;;;;40.30;22.00;;;;;;;14.96;81.59;99744.44;4223219;28;20676;-67
2022/10/15 10:02:37;;;;;;;38.57;20.80;;;;;;;15.08;81.46;99745.63;4252668;28;20626;-67
2022/10/15 10:05:28;;;;;;;36.40;20.20;;;;;;;15.25;80.74;99742.69;4226557;28;23007;-66
2022/10/15 10:08:14;;;;;;;40.30;20.93;;;;;;;15.34;80.06;99736.16;4209760;28;22605;-66
2022/10/15 10:10:41;;;;;;;37.67;20.07;;;;;;;15.53;79.33;99732.81;4228339;28;21588;-64
2022/10/15 10:13:27;;;;;;;38.83;20.93;;;;;;;15.91;77.61;99737.84;4249061;28;20329;-67
2022/10/15 10:15:55;;;;;;;38.33;19.63;;;;;;;16.36;75.09;99732.91;4235604;28;20433;-66
2022/10/15 10:18:25;;;;;;;34.63;18.60;;;;;;;16.57;73.68;99736.50;4269104;28;20245;-66
2022/10/15 10:21:00;;;;;;;32.80;18.20;;;;;;;16.72;72.34;99729.13;4263305;28;20241;-65
2022/10/15 10:23:33;;;;;;;31.80;18.60;;;;;;;16.75;71.81;99734.09;4297856;28;21312;-68
2022/10/15 10:26:03;;;;;;;31.47;18.03;;;;;;;16.67;71.41;99742.34;4306169;28;20679;-69
2022/10/15 10:28:47;;;;;;;32.43;17.40;;;;;;;16.66;72.09;99736.13;4273752;28;26188;-62
2022/10/15 10:31:17;;;;;;;33.63;18.23;;;;;;;16.72;71.53;99721.06;4275930;28;20312;-68
2022/10/15 10:33:46;;;;;;;32.37;17.50;;;;;;;16.92;71.00;99717.63;4244982;28;20568;-68
2022/10/15 10:36:25;;;;;;;34.20;18.10;;;;;;;17.05;70.47;99723.84;4267751;28;20396;-65
2022/10/15 10:39:25;;;;;;;31.17;17.77;;;;;;;17.34;68.98;99729.03;4256352;28;20235;-66
2022/10/15 10:41:59;;;;;;;29.30;16.63;;;;;;;17.30;68.56;99732.16;4235225;28;20435;-69
2022/10/15 10:44:25;;;;;;;35.73;17.70;;;;;;;17.17;69.36;99731.31;4245192;28;20262;-72
2022/10/15 10:47:08;;;;;;;31.93;18.07;;;;;;;17.09;69.32;99729.63;4246700;28;20230;-68
2022/10/15 10:49:44;;;;;;;32.07;17.47;;;;;;;17.14;69.09;99724.50;4235595;28;20234;-66
2022/10/15 10:52:33;;;;;;;28.67;17.07;;;;;;;17.19;67.75;99722.00;4202965;28;21781;-68
2022/10/15 10:55:16;;;;;;;29.00;16.00;;;;;;;17.03;67.35;99730.47;4235885;28;20351;-64
2022/10/15 10:57:53;;;;;;;29.70;16.33;;;;;;;16.82;68.90;99718.03;4271598;28;20258;-63
2022/10/15 11:00:22;;;;;;;28.57;16.17;;;;;;;16.91;68.96;99713.28;4255183;28;20293;-72
2022/10/15 11:02:50;;;;;;;27.33;16.33;;;;;;;17.23;68.32;99725.09;4232114;28;22079;-67
2022/10/15 11:05:28;;;;;;;23.80;15.23;;;;;;;17.25;67.86;99723.03;4232602;28;20394;-70
2022/10/15 11:07:59;;;;;;;27.17;15.90;;;;;;;17.30;67.75;99724.09;4234810;28;20590;-74
2022/10/15 11:10:47;;;;;;;34.23;16.10;;;;;;;17.45;67.00;99720.34;4228215;28;20371;-73
2022/10/15 11:13:33;;;;;;;27.43;16.00;;;;;;;17.61;66.42;99721.81;4225859;28;20314;-73
2022/10/15 11:16:07;;;;;;;30.03;16.43;;;;;;;17.77;65.48;99721.38;4256755;28;20296;-65
2022/10/15 11:18:58;;;;;;;31.67;15.57;;;;;;;17.49;65.89;99717.03;4237844;28;21661;-71
2022/10/15 11:21:36;;;;;;;30.23;15.60;;;;;;;17.44;66.36;99726.75;4257895;28;20245;-68
2022/10/15 11:24:14;;;;;;;29.13;16.00;;;;;;;17.56;66.22;99725.13;4244080;28;23086;-71
2022/10/15 11:26:59;;;;;;;21.97;14.33;;;;;;;17.60;64.80;99725.50;4214588;28;20247;-67
2022/10/15 11:29:55;;;;;;;25.43;15.03;;;;;;;17.66;64.58;99733.59;4239008;28;22402;-67
2022/10/15 11:32:26;;;;;;;26.03;15.33;;;;;;;17.61;64.65;99728.00;4220888;28;20351;-68
2022/10/15 11:35:25;;;;;;;27.17;15.00;;;;;;;17.54;64.22;99724.50;4258517;28;20300;-68